createdAt,value
2022-12-08T00:01:15.428Z,6.63
2022-12-08T00:03:42.697Z,6.63
2022-12-08T00:06:49.179Z,6.90
2022-12-08T00:09:23.830Z,6.17
2022-12-08T00:11:54.596Z,7.83
2022-12-08T00:14:24.672Z,6.53
2022-12-08T00:16:51.673Z,6.67
2022-12-08T00:19:18.553Z,6.67
2022-12-08T00:21:45.434Z,6.23
2022-12-08T00:24:12.275Z,6.10
2022-12-08T00:26:39.145Z,6.57
2022-12-08T00:29:06.219Z,6.73
2022-12-08T00:31:33.277Z,7.10
2022-12-08T00:34:00.869Z,7.30
2022-12-08T00:36:28.082Z,6.13
2022-12-08T00:38:54.998Z,6.20
2022-12-08T00:41:43.693Z,6.83
2022-12-08T00:44:12.492Z,7.17
2022-12-08T00:46:39.327Z,6.13
2022-12-08T00:49:06.711Z,6.17
2022-12-08T00:51:33.976Z,7.57
2022-12-08T00:54:00.887Z,6.30
2022-12-08T00:56:27.815Z,7.27
2022-12-08T00:58:54.627Z,6.97
2022-12-08T01:01:21.543Z,7.20
2022-12-08T01:03:48.850Z,7.93
2022-12-08T01:06:15.829Z,6.97
2022-12-08T01:08:42.867Z,6.73
2022-12-08T01:11:13.604Z,8.00
2022-12-08T01:13:40.479Z,6.50
2022-12-08T01:16:07.609Z,7.70
2022-12-08T01:18:35.000Z,6.50
2022-12-08T01:21:08.567Z,6.93
2022-12-08T01:23:35.457Z,7.00
2022-12-08T01:26:07.155Z,6.90
2022-12-08T01:28:34.618Z,7.13
2022-12-08T01:31:02.342Z,6.43
2022-12-08T01:33:29.406Z,6.87
2022-12-08T01:35:56.665Z,7.40
2022-12-08T01:38:23.760Z,7.40
2022-12-08T01:40:50.628Z,6.87
2022-12-08T01:43:19.895Z,7.07
2022-12-08T01:45:47.025Z,7.03
2022-12-08T01:48:26.471Z,7.20
2022-12-08T01:50:54.648Z,7.60
2022-12-08T01:53:28.171Z,7.10
2022-12-08T01:55:58.486Z,6.90
2022-12-08T01:58:38.296Z,6.47
2022-12-08T02:01:05.225Z,6.37
2022-12-08T02:03:38.789Z,6.10
2022-12-08T02:06:05.813Z,6.40
2022-12-08T02:08:32.986Z,6.97
2022-12-08T02:10:59.832Z,5.87
2022-12-08T02:13:26.765Z,6.80
2022-12-08T02:16:10.695Z,6.50
2022-12-08T02:19:30.912Z,6.60
2022-12-08T02:22:14.734Z,6.20
2022-12-08T02:24:50.453Z,6.63
2022-12-08T02:27:22.915Z,6.33
2022-12-08T02:30:02.991Z,6.20
2022-12-08T02:33:05.826Z,6.07
2022-12-08T02:35:55.587Z,6.57
2022-12-08T02:38:40.368Z,6.17
2022-12-08T02:41:21.478Z,6.37
2022-12-08T02:44:00.946Z,5.63
2022-12-08T02:46:33.348Z,6.57
2022-12-08T02:49:00.612Z,6.40
2022-12-08T02:51:27.456Z,5.67
2022-12-08T02:53:54.363Z,5.80
2022-12-08T02:56:30.185Z,5.83
2022-12-08T02:59:06.348Z,6.23
2022-12-08T03:01:39.392Z,6.57
2022-12-08T03:04:14.603Z,5.83
2022-12-08T03:06:47.225Z,6.27
2022-12-08T03:09:36.653Z,5.73
2022-12-08T03:12:20.604Z,6.00
2022-12-08T03:14:50.882Z,6.00
2022-12-08T03:17:19.997Z,6.83
2022-12-08T03:19:47.674Z,5.93
2022-12-08T03:22:16.738Z,5.20
2022-12-08T03:24:45.507Z,5.50
2022-12-08T03:27:19.876Z,5.10
2022-12-08T03:29:47.976Z,5.27
2022-12-08T03:32:14.906Z,5.17
2022-12-08T03:34:43.386Z,5.70
2022-12-08T03:37:10.282Z,5.40
2022-12-08T03:39:37.185Z,5.10
2022-12-08T03:42:04.172Z,5.50
2022-12-08T03:44:31.068Z,5.33
2022-12-08T03:46:57.982Z,5.40
2022-12-08T03:49:24.920Z,5.20
2022-12-08T03:51:51.809Z,5.27
2022-12-08T03:54:18.711Z,4.97
2022-12-08T03:56:45.611Z,5.13
2022-12-08T03:59:12.548Z,5.17
2022-12-08T04:01:39.470Z,4.37
2022-12-08T04:04:06.468Z,4.93
2022-12-08T04:06:33.362Z,5.00
2022-12-08T04:09:00.523Z,4.93
2022-12-08T04:11:27.403Z,5.20
2022-12-08T04:13:54.267Z,5.03
2022-12-08T04:16:23.702Z,5.57
2022-12-08T04:18:51.073Z,5.20
2022-12-08T04:21:18.211Z,5.23
2022-12-08T04:23:45.436Z,5.57
2022-12-08T04:26:12.840Z,4.20
2022-12-08T04:28:39.787Z,5.20
2022-12-08T04:31:07.159Z,5.07
2022-12-08T04:33:35.400Z,5.00
2022-12-08T04:36:03.557Z,5.10
2022-12-08T04:38:30.642Z,4.77
2022-12-08T04:40:57.616Z,4.40
2022-12-08T04:43:24.493Z,4.50
2022-12-08T04:45:51.464Z,4.83
2022-12-08T04:48:18.399Z,4.90
2022-12-08T04:50:45.714Z,5.17
2022-12-08T04:53:13.737Z,5.17
2022-12-08T04:55:45.149Z,4.80
2022-12-08T04:58:14.064Z,4.47
2022-12-08T05:00:41.601Z,4.40
2022-12-08T05:03:08.592Z,4.37
2022-12-08T05:05:35.845Z,5.30
2022-12-08T05:08:02.960Z,4.87
2022-12-08T05:10:29.920Z,4.67
2022-12-08T05:12:58.544Z,4.20
2022-12-08T05:15:25.498Z,4.30
2022-12-08T05:17:52.358Z,4.17
2022-12-08T05:20:19.371Z,4.47
2022-12-08T05:22:46.269Z,4.30
2022-12-08T05:25:13.159Z,4.60
2022-12-08T05:27:40.113Z,4.83
2022-12-08T05:30:07.999Z,4.63
2022-12-08T05:32:34.855Z,4.60
2022-12-08T05:35:01.714Z,4.30
2022-12-08T05:37:28.617Z,4.30
2022-12-08T05:39:55.557Z,4.70
2022-12-08T05:42:24.895Z,4.50
2022-12-08T05:44:52.676Z,4.43
2022-12-08T05:47:19.785Z,4.53
2022-12-08T05:49:46.801Z,3.87
2022-12-08T05:52:13.659Z,4.50
2022-12-08T05:54:40.507Z,5.20
2022-12-08T05:57:07.419Z,3.90
2022-12-08T05:59:34.341Z,4.40
2022-12-08T06:02:01.293Z,4.30
2022-12-08T06:04:28.449Z,4.57
2022-12-08T06:06:55.952Z,4.00
2022-12-08T06:09:22.857Z,4.00
2022-12-08T06:11:49.899Z,3.80
2022-12-08T06:14:16.758Z,4.40
2022-12-08T06:16:43.724Z,3.60
2022-12-08T06:19:10.852Z,3.47
2022-12-08T06:21:37.751Z,4.37
2022-12-08T06:24:04.794Z,4.00
2022-12-08T06:26:31.773Z,4.30
2022-12-08T06:29:01.027Z,4.03
2022-12-08T06:31:28.539Z,4.17
2022-12-08T06:33:55.787Z,3.90
2022-12-08T06:36:25.568Z,3.67
2022-12-08T06:38:53.087Z,3.57
2022-12-08T06:41:19.982Z,3.40
2022-12-08T06:43:46.955Z,3.83
2022-12-08T06:46:16.531Z,3.77
2022-12-08T06:48:43.798Z,3.60
2022-12-08T06:51:15.317Z,3.73
2022-12-08T06:53:43.315Z,3.50
2022-12-08T06:56:11.226Z,3.63
2022-12-08T06:58:38.503Z,3.60
2022-12-08T07:01:06.644Z,3.43
2022-12-08T07:03:33.618Z,3.73
2022-12-08T07:06:04.103Z,4.03
2022-12-08T07:08:32.399Z,3.70
2022-12-08T07:10:59.856Z,3.67
2022-12-08T07:13:26.860Z,3.77
2022-12-08T07:15:53.767Z,3.47
2022-12-08T07:18:20.648Z,3.17
2022-12-08T07:20:47.573Z,3.73
2022-12-08T07:23:15.371Z,3.60
2022-12-08T07:25:42.304Z,3.50
2022-12-08T07:28:10.777Z,3.57
2022-12-08T07:30:38.360Z,3.57
2022-12-08T07:33:08.250Z,3.27
2022-12-08T07:35:35.509Z,3.27
2022-12-08T07:38:02.659Z,3.40
2022-12-08T07:40:29.737Z,3.60
2022-12-08T07:42:56.644Z,3.50
2022-12-08T07:45:28.328Z,3.87
2022-12-08T07:47:58.113Z,4.03
2022-12-08T07:50:25.016Z,4.23
2022-12-08T07:52:51.915Z,3.53
2022-12-08T07:55:18.847Z,3.43
2022-12-08T07:57:45.729Z,4.03
2022-12-08T08:00:13.154Z,4.00
2022-12-08T08:02:40.409Z,4.17
2022-12-08T08:05:08.090Z,3.73
2022-12-08T08:07:35.226Z,4.60
2022-12-08T08:10:02.267Z,3.63
2022-12-08T08:12:32.041Z,3.70
2022-12-08T08:15:01.063Z,4.13
2022-12-08T08:17:29.089Z,3.50
2022-12-08T08:19:56.174Z,4.00
2022-12-08T08:22:23.115Z,3.80
2022-12-08T08:24:50.188Z,3.73
2022-12-08T08:27:17.195Z,4.63
2022-12-08T08:29:44.319Z,4.70
2022-12-08T08:32:11.416Z,3.47
2022-12-08T08:34:38.862Z,4.20
2022-12-08T08:37:05.870Z,4.60
2022-12-08T08:39:32.895Z,4.47
2022-12-08T08:41:59.871Z,4.07
2022-12-08T08:44:26.788Z,4.03
2022-12-08T08:46:53.783Z,3.47
2022-12-08T08:49:21.601Z,4.20
2022-12-08T08:51:48.526Z,4.40
2022-12-08T08:54:15.484Z,4.53
2022-12-08T08:56:42.398Z,4.13
2022-12-08T08:59:10.239Z,3.80
2022-12-08T09:01:37.329Z,4.10
2022-12-08T09:04:04.340Z,4.53
2022-12-08T09:06:31.472Z,4.13
2022-12-08T09:08:58.375Z,4.23
2022-12-08T09:11:25.331Z,4.83
2022-12-08T09:13:53.371Z,4.67
2022-12-08T09:16:20.995Z,4.67
2022-12-08T09:18:49.718Z,4.27
2022-12-08T09:21:26.057Z,4.20
2022-12-08T09:23:56.425Z,3.90
2022-12-08T09:26:24.176Z,3.87
2022-12-08T09:28:52.357Z,4.43
2022-12-08T09:31:21.055Z,4.00
2022-12-08T09:33:48.754Z,3.53
2022-12-08T09:36:15.790Z,3.80
2022-12-08T09:38:42.664Z,3.57
2022-12-08T09:41:48.190Z,3.20
2022-12-08T09:44:38.221Z,3.23
2022-12-08T09:47:13.227Z,3.63
2022-12-08T09:49:47.300Z,2.80
2022-12-08T09:52:27.489Z,4.17
2022-12-08T09:54:56.079Z,4.57
2022-12-08T09:57:24.091Z,3.80
2022-12-08T09:59:58.305Z,3.63
2022-12-08T10:02:28.842Z,5.37
2022-12-08T10:04:57.437Z,4.40
2022-12-08T10:07:41.238Z,6.70
2022-12-08T10:10:13.672Z,5.67
2022-12-08T10:12:59.735Z,5.30
2022-12-08T10:15:44.845Z,6.30
2022-12-08T10:18:32.451Z,6.03
2022-12-08T10:21:20.752Z,6.83
2022-12-08T10:23:51.653Z,4.90
2022-12-08T10:26:20.725Z,4.63
2022-12-08T10:28:48.317Z,4.83
2022-12-08T10:31:16.358Z,3.80
2022-12-08T10:33:44.222Z,3.30
2022-12-08T10:36:11.665Z,5.40
2022-12-08T10:38:40.214Z,6.63
2022-12-08T10:41:10.203Z,5.43
2022-12-08T10:43:41.411Z,3.80
2022-12-08T10:46:20.679Z,6.27
2022-12-08T10:49:11.683Z,5.67
2022-12-08T10:51:40.671Z,4.23
2022-12-08T10:54:30.761Z,4.80
2022-12-08T10:56:57.768Z,3.80
2022-12-08T10:59:25.895Z,3.83
2022-12-08T11:01:55.155Z,4.03
2022-12-08T11:04:25.919Z,3.80
2022-12-08T11:06:53.173Z,3.20
2022-12-08T11:09:20.055Z,3.30
2022-12-08T11:12:14.233Z,2.60
2022-12-08T11:14:44.184Z,2.37
2022-12-08T11:17:13.437Z,2.60
2022-12-08T11:19:43.072Z,2.20
2022-12-08T11:22:23.317Z,2.43
2022-12-08T11:25:08.620Z,2.20
2022-12-08T11:27:37.847Z,1.70
2022-12-08T11:30:23.053Z,2.30
2022-12-08T11:32:56.031Z,1.97
2022-12-08T11:35:35.316Z,1.77
2022-12-08T11:38:20.564Z,2.50
2022-12-08T11:40:54.097Z,1.63
2022-12-08T11:43:35.882Z,1.90
2022-12-08T11:46:33.441Z,1.60
2022-12-08T11:49:06.669Z,2.23
2022-12-08T11:51:54.148Z,2.50
2022-12-08T11:54:41.834Z,1.80
2022-12-08T11:57:21.011Z,2.13
2022-12-08T11:59:50.682Z,2.27
2022-12-08T12:02:19.287Z,1.50
2022-12-08T12:05:08.874Z,1.70
2022-12-08T12:08:14.027Z,1.70
2022-12-08T12:11:04.508Z,1.50
2022-12-08T12:13:59.882Z,1.67
2022-12-08T12:16:44.639Z,1.50
2022-12-08T12:19:16.139Z,1.70
2022-12-08T12:21:45.870Z,1.77
2022-12-08T12:24:25.893Z,1.47
2022-12-08T12:27:00.101Z,1.50
2022-12-08T12:29:32.913Z,1.60
2022-12-08T12:32:10.902Z,1.77
2022-12-08T12:34:47.108Z,2.03
2022-12-08T12:37:24.118Z,1.60
2022-12-08T12:39:54.037Z,1.80
2022-12-08T12:42:54.915Z,2.27
2022-12-08T12:45:21.745Z,2.40
2022-12-08T12:47:58.154Z,2.00
2022-12-08T12:50:34.151Z,1.80
2022-12-08T12:53:07.907Z,1.97
2022-12-08T12:55:46.806Z,2.30
2022-12-08T12:58:35.868Z,1.80
2022-12-08T13:01:44.605Z,2.30
2022-12-08T13:04:12.720Z,1.93
2022-12-08T13:06:43.691Z,2.40
2022-12-08T13:09:22.659Z,2.50
2022-12-08T13:11:56.185Z,2.10
2022-12-08T13:14:35.433Z,2.10
2022-12-08T13:17:05.893Z,2.00
2022-12-08T13:19:33.451Z,2.00
2022-12-08T13:22:01.130Z,2.10
2022-12-08T13:24:35.036Z,2.10
2022-12-08T13:27:04.942Z,2.00
2022-12-08T13:29:33.145Z,2.20
2022-12-08T13:32:01.023Z,2.20
2022-12-08T13:34:52.158Z,2.00
2022-12-08T13:37:57.285Z,1.87
2022-12-08T13:40:30.469Z,1.87
2022-12-08T13:43:05.946Z,2.00
2022-12-08T13:46:18.276Z,1.77
2022-12-08T13:56:05.432Z,1.77
2022-12-08T13:57:32.845Z,1.47
2022-12-08T14:00:01.799Z,2.10
2022-12-08T14:02:39.696Z,1.80
2022-12-08T14:05:35.252Z,1.70
2022-12-08T14:07:57.750Z,1.70
2022-12-08T14:10:30.655Z,1.77
2022-12-08T14:13:01.142Z,1.53
2022-12-08T14:15:34.081Z,1.50
2022-12-08T14:18:03.973Z,1.87
2022-12-08T14:20:46.552Z,1.77
2022-12-08T14:23:20.133Z,1.90
2022-12-08T14:25:47.889Z,1.90
2022-12-08T14:28:15.121Z,1.90
2022-12-08T14:30:42.218Z,1.87
2022-12-08T14:33:14.221Z,1.80
2022-12-08T14:35:41.100Z,1.90
2022-12-08T14:38:16.561Z,1.60
2022-12-08T14:40:45.516Z,2.03
2022-12-08T14:43:15.341Z,1.87
2022-12-08T14:45:45.013Z,2.10
2022-12-08T14:48:31.511Z,2.53
2022-12-08T14:51:11.978Z,2.43
2022-12-08T14:53:44.587Z,2.63
2022-12-08T14:56:22.603Z,2.27
2022-12-08T14:58:50.809Z,2.23
2022-12-08T15:01:23.567Z,2.27
2022-12-08T15:03:51.672Z,2.30
2022-12-08T15:06:21.024Z,2.80
2022-12-08T15:09:18.624Z,2.80
2022-12-08T15:11:45.552Z,3.03
2022-12-08T15:14:30.683Z,2.40
2022-12-08T15:16:57.707Z,2.63
2022-12-08T15:19:28.777Z,2.23
2022-12-08T15:21:57.805Z,2.23
2022-12-08T15:24:27.089Z,2.50
2022-12-08T15:26:54.160Z,2.43
2022-12-08T15:29:25.285Z,2.20
2022-12-08T15:31:53.999Z,2.33
2022-12-08T15:34:21.881Z,2.50
2022-12-08T15:36:50.657Z,2.40
2022-12-08T15:39:36.746Z,2.23
2022-12-08T15:42:06.217Z,2.93
2022-12-08T15:44:33.242Z,2.70
2022-12-08T15:47:00.483Z,2.40
2022-12-08T15:49:27.476Z,2.50
2022-12-08T15:52:01.962Z,2.33
2022-12-08T15:54:37.391Z,2.33
2022-12-08T15:57:20.170Z,2.43
2022-12-08T15:59:49.572Z,2.67
2022-12-08T16:02:22.363Z,2.47
2022-12-08T16:07:38.488Z,2.20
2022-12-08T16:10:07.116Z,2.70
2022-12-08T16:16:00.720Z,2.13
2022-12-08T16:18:31.660Z,2.10
2022-12-08T16:21:10.338Z,2.60
2022-12-08T16:23:45.243Z,2.30
2022-12-08T16:29:06.708Z,3.57
2022-12-08T16:31:33.927Z,2.87
2022-12-08T16:34:01.047Z,3.13
2022-12-08T16:36:28.034Z,2.83
2022-12-08T16:38:54.943Z,2.73
2022-12-08T16:41:40.383Z,2.87
2022-12-08T16:44:07.307Z,3.20
2022-12-08T16:46:35.029Z,3.00
2022-12-08T16:49:02.396Z,3.10
2022-12-08T16:51:29.365Z,2.40
2022-12-08T16:53:57.352Z,2.10
2022-12-08T16:56:30.643Z,2.17
2022-12-08T16:58:59.521Z,2.17
2022-12-08T17:01:26.607Z,2.13
2022-12-08T17:04:29.249Z,2.57
2022-12-08T17:06:41.022Z,2.80
2022-12-08T17:09:08.177Z,3.67
2022-12-08T17:11:42.296Z,4.40
2022-12-08T17:14:10.605Z,4.43
2022-12-08T17:16:37.698Z,4.00
2022-12-08T17:19:04.704Z,4.83
2022-12-08T17:21:31.727Z,4.57
2022-12-08T17:23:58.781Z,4.50
2022-12-08T17:26:25.745Z,4.37
2022-12-08T17:29:00.557Z,4.87
2022-12-08T17:31:30.215Z,4.50
2022-12-08T17:34:02.132Z,4.57
2022-12-08T17:36:29.123Z,5.67
2022-12-08T17:38:57.193Z,8.50
2022-12-08T17:41:24.078Z,9.10
2022-12-08T17:43:50.957Z,10.17
2022-12-08T17:46:18.825Z,8.43
2022-12-08T17:48:45.762Z,7.63
2022-12-08T17:51:12.651Z,7.33
2022-12-08T17:53:41.017Z,7.20
2022-12-08T17:56:15.403Z,6.97
2022-12-08T17:58:42.348Z,6.57
2022-12-08T18:01:10.178Z,6.13
2022-12-08T18:03:37.699Z,5.70
2022-12-08T18:06:13.468Z,4.93
2022-12-08T18:08:40.448Z,4.60
2022-12-08T18:11:12.478Z,3.80
2022-12-08T18:13:39.470Z,3.50
2022-12-08T18:16:06.615Z,3.37
2022-12-08T18:18:33.488Z,2.90
2022-12-08T18:21:00.449Z,3.53
2022-12-08T18:23:27.353Z,3.53
2022-12-08T18:25:54.376Z,2.77
2022-12-08T18:28:21.322Z,2.10
2022-12-08T18:30:48.774Z,2.67
2022-12-08T18:33:15.808Z,2.97
2022-12-08T18:35:42.687Z,3.03
2022-12-08T18:38:09.616Z,3.20
2022-12-08T18:40:36.515Z,3.63
2022-12-08T18:43:03.557Z,3.97
2022-12-08T18:45:30.500Z,3.07
2022-12-08T18:47:57.367Z,3.40
2022-12-08T18:50:24.315Z,3.60
2022-12-08T18:52:51.745Z,4.40
2022-12-08T18:55:18.762Z,4.77
2022-12-08T18:57:46.462Z,4.17
2022-12-08T19:00:15.964Z,4.23
2022-12-08T19:02:43.187Z,4.17
2022-12-08T19:05:12.811Z,3.50
2022-12-08T19:07:39.891Z,3.60
2022-12-08T19:10:07.905Z,4.20
2022-12-08T19:12:34.939Z,3.37
2022-12-08T19:15:01.856Z,3.40
2022-12-08T19:17:29.953Z,3.80
2022-12-08T19:19:56.896Z,3.57
2022-12-08T19:22:23.848Z,4.37
2022-12-08T19:24:50.817Z,3.93
2022-12-08T19:27:18.898Z,3.60
2022-12-08T19:29:45.774Z,3.67
2022-12-08T19:32:12.656Z,3.60
2022-12-08T19:34:39.593Z,4.17
2022-12-08T19:37:07.050Z,3.87
2022-12-08T19:39:52.287Z,3.93
2022-12-08T19:42:38.877Z,3.53
2022-12-08T19:45:14.896Z,4.07
2022-12-08T19:47:42.163Z,3.33
2022-12-08T19:50:29.242Z,3.63
2022-12-08T19:52:56.436Z,3.53
2022-12-08T19:55:23.922Z,3.97
2022-12-08T19:57:51.968Z,3.77
2022-12-08T20:00:19.959Z,3.87
2022-12-08T20:02:47.412Z,3.80
2022-12-08T20:05:14.839Z,4.70
2022-12-08T20:07:42.345Z,4.90
2022-12-08T20:10:17.084Z,4.63
2022-12-08T20:12:44.068Z,4.33
2022-12-08T20:15:11.321Z,4.83
2022-12-08T20:17:38.691Z,4.20
2022-12-08T20:20:07.621Z,4.97
2022-12-08T20:22:35.074Z,4.90
2022-12-08T20:25:02.638Z,5.07
2022-12-08T20:27:29.668Z,5.00
2022-12-08T20:29:56.649Z,5.30
2022-12-08T20:32:23.581Z,4.43
2022-12-08T20:34:50.468Z,4.40
2022-12-08T20:37:17.368Z,4.67
2022-12-08T20:39:44.304Z,4.77
2022-12-08T20:42:14.360Z,5.07
2022-12-08T20:44:44.682Z,4.40
2022-12-08T20:47:12.798Z,4.40
2022-12-08T20:49:39.981Z,3.83
2022-12-08T20:52:07.352Z,3.87
2022-12-08T20:54:34.602Z,3.93
2022-12-08T20:57:01.890Z,3.53
2022-12-08T20:59:29.593Z,3.53
2022-12-08T21:01:56.720Z,3.73
2022-12-08T21:04:24.093Z,4.07
2022-12-08T21:06:51.273Z,3.60
2022-12-08T21:09:18.789Z,3.53
2022-12-08T21:11:45.818Z,3.70
2022-12-08T21:14:12.703Z,3.87
2022-12-08T21:16:40.254Z,3.63
2022-12-08T21:19:07.316Z,4.10
2022-12-08T21:21:34.325Z,4.57
2022-12-08T21:24:01.491Z,4.13
2022-12-08T21:26:29.099Z,4.03
2022-12-08T21:28:59.084Z,4.53
2022-12-08T21:31:27.255Z,4.27
2022-12-08T21:33:55.333Z,5.30
2022-12-08T21:36:22.971Z,5.53
2022-12-08T21:38:50.316Z,5.67
2022-12-08T21:41:39.402Z,6.57
2022-12-08T21:44:08.280Z,8.87
2022-12-08T21:46:35.461Z,8.13
2022-12-08T21:49:02.830Z,8.10
2022-12-08T21:51:30.563Z,8.83
2022-12-08T21:53:57.644Z,8.70
2022-12-08T21:56:24.557Z,8.67
2022-12-08T21:58:51.653Z,8.40
2022-12-08T22:01:18.835Z,8.47
2022-12-08T22:03:45.956Z,7.97
2022-12-08T22:06:14.238Z,7.27
2022-12-08T22:08:42.455Z,7.57
2022-12-08T22:11:11.375Z,6.83
2022-12-08T22:13:40.525Z,6.73
2022-12-08T22:16:10.553Z,6.33
2022-12-08T22:18:38.155Z,5.80
2022-12-08T22:21:15.898Z,5.33
2022-12-08T22:23:43.255Z,5.23
2022-12-08T22:26:11.412Z,5.17
2022-12-08T22:28:41.584Z,4.80
2022-12-08T22:31:16.690Z,4.67
2022-12-08T22:33:44.277Z,5.13
2022-12-08T22:36:33.793Z,4.43
2022-12-08T22:39:02.576Z,4.67
2022-12-08T22:41:29.894Z,3.77
2022-12-08T22:43:56.945Z,3.80
2022-12-08T22:46:26.315Z,4.23
2022-12-08T22:48:54.467Z,4.47
2022-12-08T22:51:21.604Z,3.97
2022-12-08T22:53:48.667Z,3.97
2022-12-08T22:56:16.599Z,3.53
2022-12-08T22:58:44.586Z,4.17
2022-12-08T23:01:26.253Z,5.27
2022-12-08T23:03:53.507Z,6.23
2022-12-08T23:06:21.073Z,6.47
2022-12-08T23:08:48.509Z,7.47
2022-12-08T23:11:15.569Z,7.20
2022-12-08T23:13:42.448Z,7.93
2022-12-08T23:16:10.408Z,7.60
2022-12-08T23:18:38.450Z,7.90
2022-12-08T23:21:07.385Z,7.13
2022-12-08T23:23:34.633Z,6.73
2022-12-08T23:26:01.574Z,7.73
2022-12-08T23:28:28.556Z,6.17
2022-12-08T23:30:55.716Z,5.73
2022-12-08T23:33:22.643Z,6.07
2022-12-08T23:35:58.611Z,5.93
2022-12-08T23:38:26.006Z,6.13
2022-12-08T23:40:53.595Z,6.83
2022-12-08T23:43:20.666Z,6.00
2022-12-08T23:45:48.644Z,5.20
2022-12-08T23:48:15.961Z,5.30
2022-12-08T23:50:42.892Z,5.13
2022-12-08T23:53:09.752Z,5.10
2022-12-08T23:55:36.690Z,4.33
2022-12-08T23:58:04.227Z,4.70
